<?xml version="1.0" encoding="UTF-8" standalone="no" ?>
<gpx xmlns="http://www.topografix.com/GPX/1/1" xmlns:xsi="http://www.w3.org/2001/XMLSchema-instance" xsi:schemaLocation="http://www.topografix.com/GPX/1/1 http://www.topografix.com/GPX/1/1/gpx.xsd" version="1.1" creator="VisuGPX - https://www.visugpx.com">
  <metadata>
    <name>Tour de France 2019</name>
    <desc><![CDATA[4272km en 2 mois en tandem avec notre petit chien dans le panier avant]]></desc>
  </metadata>
  <trk>
    <name><![CDATA[Tracé 20191009-094023]]></name>
    <trkseg>
      <trkpt lat="44.90657" lon="5.78267">
        <ele>873.467</ele>
        <time>2019-10-09T07:54:29Z</time>
      </trkpt>
      <trkpt lat="44.90635" lon="5.78366">
        <ele>875.298</ele>
        <time>2019-10-09T07:55:23Z</time>
      </trkpt>
      <trkpt lat="44.90582" lon="5.78346">
        <ele>880.646</ele>
        <time>2019-10-09T07:55:53Z</time>
      </trkpt>
      <trkpt lat="44.90539" lon="5.78354">
        <ele>886.755</ele>
        <time>2019-10-09T07:56:26Z</time>
      </trkpt>
      <trkpt lat="44.90616" lon="5.78405">
        <ele>889.33</ele>
        <time>2019-10-09T07:56:56Z</time>
      </trkpt>
      <trkpt lat="44.9067" lon="5.78489">
        <ele>895.403</ele>
        <time>2019-10-09T07:57:26Z</time>
      </trkpt>
      <trkpt lat="44.90695" lon="5.78655">
        <ele>891.79</ele>
        <time>2019-10-09T07:57:56Z</time>
      </trkpt>
      <trkpt lat="44.9067" lon="5.78735">
        <ele>885.342</ele>
        <time>2019-10-09T08:03:11Z</time>
      </trkpt>
      <trkpt lat="44.90605" lon="5.78764">
        <ele>893.44</ele>
        <time>2019-10-09T08:03:50Z</time>
      </trkpt>
      <trkpt lat="44.90552" lon="5.78856">
        <ele>898.082</ele>
        <time>2019-10-09T08:04:20Z</time>
      </trkpt>
      <trkpt lat="44.90539" lon="5.79097">
        <ele>882.697</ele>
        <time>2019-10-09T08:04:50Z</time>
      </trkpt>
      <trkpt lat="44.90533" lon="5.79405">
        <ele>852.732</ele>
        <time>2019-10-09T08:05:20Z</time>
      </trkpt>
      <trkpt lat="44.90499" lon="5.79736">
        <ele>830.255</ele>
        <time>2019-10-09T08:05:50Z</time>
      </trkpt>
      <trkpt lat="44.9024" lon="5.7985">
        <ele>809.935</ele>
        <time>2019-10-09T08:06:20Z</time>
      </trkpt>
      <trkpt lat="44.90084" lon="5.80024">
        <ele>801.465</ele>
        <time>2019-10-09T08:06:50Z</time>
      </trkpt>
      <trkpt lat="44.8989" lon="5.80323">
        <ele>786.41</ele>
        <time>2019-10-09T08:07:20Z</time>
      </trkpt>
      <trkpt lat="44.89778" lon="5.80725">
        <ele>761.492</ele>
        <time>2019-10-09T08:07:50Z</time>
      </trkpt>
      <trkpt lat="44.89549" lon="5.80664">
        <ele>737.218</ele>
        <time>2019-10-09T08:08:20Z</time>
      </trkpt>
      <trkpt lat="44.89239" lon="5.80595">
        <ele>720.173</ele>
        <time>2019-10-09T08:08:53Z</time>
      </trkpt>
      <trkpt lat="44.89006" lon="5.80534">
        <ele>705.315</ele>
        <time>2019-10-09T08:09:23Z</time>
      </trkpt>
      <trkpt lat="44.88748" lon="5.8037">
        <ele>679.846</ele>
        <time>2019-10-09T08:09:53Z</time>
      </trkpt>
      <trkpt lat="44.88551" lon="5.80132">
        <ele>657.062</ele>
        <time>2019-10-09T08:10:23Z</time>
      </trkpt>
      <trkpt lat="44.88461" lon="5.79961">
        <ele>634.258</ele>
        <time>2019-10-09T08:10:53Z</time>
      </trkpt>
      <trkpt lat="44.88388" lon="5.79733">
        <ele>615.91</ele>
        <time>2019-10-09T08:11:23Z</time>
      </trkpt>
      <trkpt lat="44.88402" lon="5.79538">
        <ele>603.865</ele>
        <time>2019-10-09T08:16:47.001Z</time>
      </trkpt>
      <trkpt lat="44.8828" lon="5.79481">
        <ele>608.592</ele>
        <time>2019-10-09T08:17:17.001Z</time>
      </trkpt>
      <trkpt lat="44.88123" lon="5.7938">
        <ele>597.378</ele>
        <time>2019-10-09T08:17:47.001Z</time>
      </trkpt>
      <trkpt lat="44.88082" lon="5.79344">
        <ele>595.53</ele>
        <time>2019-10-09T08:18:44.001Z</time>
      </trkpt>
      <trkpt lat="44.88009" lon="5.79234">
        <ele>598.03</ele>
        <time>2019-10-09T08:19:14.001Z</time>
      </trkpt>
      <trkpt lat="44.87973" lon="5.7915">
        <ele>610.274</ele>
        <time>2019-10-09T08:19:44.001Z</time>
      </trkpt>
      <trkpt lat="44.87936" lon="5.79073">
        <ele>615.367</ele>
        <time>2019-10-09T08:20:14.001Z</time>
      </trkpt>
      <trkpt lat="44.87933" lon="5.78988">
        <ele>616.262</ele>
        <time>2019-10-09T08:20:44.001Z</time>
      </trkpt>
      <trkpt lat="44.87933" lon="5.78901">
        <ele>612.129</ele>
        <time>2019-10-09T08:21:14.001Z</time>
      </trkpt>
      <trkpt lat="44.87958" lon="5.78821">
        <ele>622.531</ele>
        <time>2019-10-09T08:21:44.001Z</time>
      </trkpt>
      <trkpt lat="44.87937" lon="5.78733">
        <ele>624.413</ele>
        <time>2019-10-09T08:22:14.001Z</time>
      </trkpt>
      <trkpt lat="44.87917" lon="5.78641">
        <ele>628.844</ele>
        <time>2019-10-09T08:22:44.001Z</time>
      </trkpt>
      <trkpt lat="44.87876" lon="5.78579">
        <ele>636.626</ele>
        <time>2019-10-09T08:23:14.001Z</time>
      </trkpt>
      <trkpt lat="44.8781" lon="5.78558">
        <ele>638.914</ele>
        <time>2019-10-09T08:23:44.001Z</time>
      </trkpt>
      <trkpt lat="44.87756" lon="5.78528">
        <ele>641.321</ele>
        <time>2019-10-09T08:24:14.001Z</time>
      </trkpt>
      <trkpt lat="44.87704" lon="5.78483">
        <ele>645.281</ele>
        <time>2019-10-09T08:24:44.001Z</time>
      </trkpt>
      <trkpt lat="44.87648" lon="5.78464">
        <ele>650.436</ele>
        <time>2019-10-09T08:25:14.001Z</time>
      </trkpt>
      <trkpt lat="44.87589" lon="5.78441">
        <ele>653.487</ele>
        <time>2019-10-09T08:25:44.001Z</time>
      </trkpt>
      <trkpt lat="44.87536" lon="5.78424">
        <ele>658.592</ele>
        <time>2019-10-09T08:26:14.001Z</time>
      </trkpt>
      <trkpt lat="44.8749" lon="5.78372">
        <ele>659.041</ele>
        <time>2019-10-09T08:26:44.001Z</time>
      </trkpt>
      <trkpt lat="44.87453" lon="5.78308">
        <ele>661.181</ele>
        <time>2019-10-09T08:27:14.001Z</time>
      </trkpt>
      <trkpt lat="44.87399" lon="5.78282">
        <ele>665.549</ele>
        <time>2019-10-09T08:27:44.001Z</time>
      </trkpt>
      <trkpt lat="44.87357" lon="5.78224">
        <ele>668.493</ele>
        <time>2019-10-09T08:28:14.001Z</time>
      </trkpt>
      <trkpt lat="44.87334" lon="5.78156">
        <ele>675.157</ele>
        <time>2019-10-09T08:28:44.001Z</time>
      </trkpt>
      <trkpt lat="44.87336" lon="5.78076">
        <ele>683.399</ele>
        <time>2019-10-09T08:29:14.001Z</time>
      </trkpt>
      <trkpt lat="44.87291" lon="5.78049">
        <ele>683.5</ele>
        <time>2019-10-09T08:29:47.001Z</time>
      </trkpt>
      <trkpt lat="44.87232" lon="5.78072">
        <ele>694.551</ele>
        <time>2019-10-09T08:30:20.001Z</time>
      </trkpt>
      <trkpt lat="44.87171" lon="5.7808">
        <ele>700.777</ele>
        <time>2019-10-09T08:30:50.001Z</time>
      </trkpt>
      <trkpt lat="44.87111" lon="5.78061">
        <ele>701.028</ele>
        <time>2019-10-09T08:31:20.001Z</time>
      </trkpt>
      <trkpt lat="44.87055" lon="5.78029">
        <ele>700.119</ele>
        <time>2019-10-09T08:31:50.001Z</time>
      </trkpt>
      <trkpt lat="44.87016" lon="5.77961">
        <ele>711.443</ele>
        <time>2019-10-09T08:32:23.001Z</time>
      </trkpt>
      <trkpt lat="44.86963" lon="5.77886">
        <ele>707.479</ele>
        <time>2019-10-09T08:32:56.001Z</time>
      </trkpt>
      <trkpt lat="44.86914" lon="5.77903">
        <ele>709.645</ele>
        <time>2019-10-09T08:33:26.001Z</time>
      </trkpt>
      <trkpt lat="44.86862" lon="5.77931">
        <ele>710.615</ele>
        <time>2019-10-09T08:33:56.001Z</time>
      </trkpt>
      <trkpt lat="44.86808" lon="5.77953">
        <ele>712.296</ele>
        <time>2019-10-09T08:34:26.001Z</time>
      </trkpt>
      <trkpt lat="44.86759" lon="5.77995">
        <ele>717.355</ele>
        <time>2019-10-09T08:34:56.001Z</time>
      </trkpt>
      <trkpt lat="44.86706" lon="5.78019">
        <ele>720.629</ele>
        <time>2019-10-09T08:35:29.001Z</time>
      </trkpt>
      <trkpt lat="44.86661" lon="5.77958">
        <ele>727.666</ele>
        <time>2019-10-09T08:36:11.001Z</time>
      </trkpt>
      <trkpt lat="44.86634" lon="5.77884">
        <ele>743.837</ele>
        <time>2019-10-09T08:36:50.001Z</time>
      </trkpt>
      <trkpt lat="44.86595" lon="5.77818">
        <ele>741.186</ele>
        <time>2019-10-09T08:37:20.001Z</time>
      </trkpt>
      <trkpt lat="44.86533" lon="5.77783">
        <ele>746.275</ele>
        <time>2019-10-09T08:38:02Z</time>
      </trkpt>
      <trkpt lat="44.86499" lon="5.7772">
        <ele>744.695</ele>
        <time>2019-10-09T08:38:32.001Z</time>
      </trkpt>
      <trkpt lat="44.8648" lon="5.77649">
        <ele>740.056</ele>
        <time>2019-10-09T08:39:02Z</time>
      </trkpt>
      <trkpt lat="44.8644" lon="5.77595">
        <ele>741.268</ele>
        <time>2019-10-09T08:39:32.001Z</time>
      </trkpt>
      <trkpt lat="44.86426" lon="5.77524">
        <ele>741.697</ele>
        <time>2019-10-09T08:40:02Z</time>
      </trkpt>
      <trkpt lat="44.864" lon="5.77463">
        <ele>744.562</ele>
        <time>2019-10-09T08:40:32.001Z</time>
      </trkpt>
      <trkpt lat="44.86369" lon="5.774">
        <ele>751.629</ele>
        <time>2019-10-09T08:41:05.001Z</time>
      </trkpt>
      <trkpt lat="44.86331" lon="5.77352">
        <ele>752.854</ele>
        <time>2019-10-09T08:41:35.001Z</time>
      </trkpt>
      <trkpt lat="44.86291" lon="5.77298">
        <ele>759.821</ele>
        <time>2019-10-09T08:42:08.001Z</time>
      </trkpt>
      <trkpt lat="44.86268" lon="5.77218">
        <ele>767.159</ele>
        <time>2019-10-09T08:42:47.001Z</time>
      </trkpt>
      <trkpt lat="44.8624" lon="5.77148">
        <ele>772.23</ele>
        <time>2019-10-09T08:43:20.001Z</time>
      </trkpt>
      <trkpt lat="44.86206" lon="5.77093">
        <ele>773.41</ele>
        <time>2019-10-09T08:43:50.001Z</time>
      </trkpt>
      <trkpt lat="44.86205" lon="5.77019">
        <ele>771.608</ele>
        <time>2019-10-09T08:44:20.001Z</time>
      </trkpt>
      <trkpt lat="44.86194" lon="5.76953">
        <ele>771.807</ele>
        <time>2019-10-09T08:44:50.001Z</time>
      </trkpt>
      <trkpt lat="44.86157" lon="5.76905">
        <ele>775.869</ele>
        <time>2019-10-09T08:45:20.001Z</time>
      </trkpt>
      <trkpt lat="44.86158" lon="5.76825">
        <ele>786.725</ele>
        <time>2019-10-09T08:45:56.001Z</time>
      </trkpt>
      <trkpt lat="44.86167" lon="5.76751">
        <ele>788.912</ele>
        <time>2019-10-09T08:46:29.001Z</time>
      </trkpt>
      <trkpt lat="44.86173" lon="5.7668">
        <ele>786.339</ele>
        <time>2019-10-09T08:46:59.001Z</time>
      </trkpt>
      <trkpt lat="44.8613" lon="5.76642">
        <ele>788.725</ele>
        <time>2019-10-09T08:47:32.001Z</time>
      </trkpt>
      <trkpt lat="44.86091" lon="5.76689">
        <ele>795.372</ele>
        <time>2019-10-09T08:48:02Z</time>
      </trkpt>
      <trkpt lat="44.86042" lon="5.76708">
        <ele>798.827</ele>
        <time>2019-10-09T08:48:32.001Z</time>
      </trkpt>
      <trkpt lat="44.8599" lon="5.76707">
        <ele>798.988</ele>
        <time>2019-10-09T08:49:02Z</time>
      </trkpt>
      <trkpt lat="44.8594" lon="5.76694">
        <ele>800.04</ele>
        <time>2019-10-09T08:49:32.001Z</time>
      </trkpt>
      <trkpt lat="44.85889" lon="5.76677">
        <ele>802.267</ele>
        <time>2019-10-09T08:50:02Z</time>
      </trkpt>
      <trkpt lat="44.85836" lon="5.7665">
        <ele>807.358</ele>
        <time>2019-10-09T08:50:35.001Z</time>
      </trkpt>
      <trkpt lat="44.85804" lon="5.76598">
        <ele>814.086</ele>
        <time>2019-10-09T08:51:05.001Z</time>
      </trkpt>
      <trkpt lat="44.85783" lon="5.76525">
        <ele>817.813</ele>
        <time>2019-10-09T08:51:38.001Z</time>
      </trkpt>
      <trkpt lat="44.85776" lon="5.76453">
        <ele>817.716</ele>
        <time>2019-10-09T08:52:08.001Z</time>
      </trkpt>
      <trkpt lat="44.85732" lon="5.76401">
        <ele>819.004</ele>
        <time>2019-10-09T08:52:41.001Z</time>
      </trkpt>
      <trkpt lat="44.85669" lon="5.76366">
        <ele>820.351</ele>
        <time>2019-10-09T08:53:11.001Z</time>
      </trkpt>
      <trkpt lat="44.85597" lon="5.76325">
        <ele>821.659</ele>
        <time>2019-10-09T08:53:41.001Z</time>
      </trkpt>
      <trkpt lat="44.85541" lon="5.76294">
        <ele>821.337</ele>
        <time>2019-10-09T08:56:14.001Z</time>
      </trkpt>
      <trkpt lat="44.8546" lon="5.76249">
        <ele>822.545</ele>
        <time>2019-10-09T08:56:44.001Z</time>
      </trkpt>
      <trkpt lat="44.85346" lon="5.76195">
        <ele>824.313</ele>
        <time>2019-10-09T08:57:14.001Z</time>
      </trkpt>
      <trkpt lat="44.85308" lon="5.76295">
        <ele>822.498</ele>
        <time>2019-10-09T08:57:44.001Z</time>
      </trkpt>
      <trkpt lat="44.8529" lon="5.76453">
        <ele>823.93</ele>
        <time>2019-10-09T08:58:14.001Z</time>
      </trkpt>
      <trkpt lat="44.85284" lon="5.76615">
        <ele>824.336</ele>
        <time>2019-10-09T08:58:44.001Z</time>
      </trkpt>
      <trkpt lat="44.85281" lon="5.7677">
        <ele>823.792</ele>
        <time>2019-10-09T08:59:14.001Z</time>
      </trkpt>
      <trkpt lat="44.85289" lon="5.76918">
        <ele>826.859</ele>
        <time>2019-10-09T08:59:44.001Z</time>
      </trkpt>
      <trkpt lat="44.85303" lon="5.77067">
        <ele>829.613</ele>
        <time>2019-10-09T09:00:14.001Z</time>
      </trkpt>
      <trkpt lat="44.85317" lon="5.77226">
        <ele>827.5</ele>
        <time>2019-10-09T09:00:44.001Z</time>
      </trkpt>
      <trkpt lat="44.85329" lon="5.77374">
        <ele>827.933</ele>
        <time>2019-10-09T09:01:14.001Z</time>
      </trkpt>
      <trkpt lat="44.85367" lon="5.77551">
        <ele>823.107</ele>
        <time>2019-10-09T09:01:44.001Z</time>
      </trkpt>
      <trkpt lat="44.85424" lon="5.77707">
        <ele>820.766</ele>
        <time>2019-10-09T09:02:14.001Z</time>
      </trkpt>
      <trkpt lat="44.85502" lon="5.77831">
        <ele>822.301</ele>
        <time>2019-10-09T09:02:44.001Z</time>
      </trkpt>
      <trkpt lat="44.8557" lon="5.77953">
        <ele>827.02</ele>
        <time>2019-10-09T09:03:14.001Z</time>
      </trkpt>
      <trkpt lat="44.8563" lon="5.78051">
        <ele>828.927</ele>
        <time>2019-10-09T09:03:44.001Z</time>
      </trkpt>
      <trkpt lat="44.85674" lon="5.78107">
        <ele>831.708</ele>
        <time>2019-10-09T09:04:14.001Z</time>
      </trkpt>
      <trkpt lat="44.85723" lon="5.7815">
        <ele>839</ele>
        <time>2019-10-09T09:04:50.001Z</time>
      </trkpt>
      <trkpt lat="44.85771" lon="5.78162">
        <ele>842.855</ele>
        <time>2019-10-09T09:05:20.001Z</time>
      </trkpt>
      <trkpt lat="44.85822" lon="5.78149">
        <ele>844.439</ele>
        <time>2019-10-09T09:05:53.001Z</time>
      </trkpt>
      <trkpt lat="44.8587" lon="5.78102">
        <ele>850.297</ele>
        <time>2019-10-09T09:06:32.001Z</time>
      </trkpt>
      <trkpt lat="44.85894" lon="5.78033">
        <ele>858.965</ele>
        <time>2019-10-09T09:07:05.001Z</time>
      </trkpt>
      <trkpt lat="44.85929" lon="5.78026">
        <ele>866.603</ele>
        <time>2019-10-09T09:07:50.001Z</time>
      </trkpt>
      <trkpt lat="44.85931" lon="5.78099">
        <ele>867.626</ele>
        <time>2019-10-09T09:08:23.001Z</time>
      </trkpt>
      <trkpt lat="44.85952" lon="5.78192">
        <ele>869.941</ele>
        <time>2019-10-09T09:09:08.001Z</time>
      </trkpt>
      <trkpt lat="44.85968" lon="5.78273">
        <ele>875.687</ele>
        <time>2019-10-09T09:09:47.001Z</time>
      </trkpt>
      <trkpt lat="44.8598" lon="5.78351">
        <ele>882.383</ele>
        <time>2019-10-09T09:10:23.001Z</time>
      </trkpt>
      <trkpt lat="44.86013" lon="5.78405">
        <ele>883.686</ele>
        <time>2019-10-09T09:10:53.001Z</time>
      </trkpt>
      <trkpt lat="44.86046" lon="5.78462">
        <ele>887.156</ele>
        <time>2019-10-09T09:11:23.001Z</time>
      </trkpt>
      <trkpt lat="44.86071" lon="5.7853">
        <ele>887.723</ele>
        <time>2019-10-09T09:11:56.001Z</time>
      </trkpt>
      <trkpt lat="44.861" lon="5.78614">
        <ele>893.644</ele>
        <time>2019-10-09T09:12:38.001Z</time>
      </trkpt>
      <trkpt lat="44.86104" lon="5.78675">
        <ele>898.56</ele>
        <time>2019-10-09T09:15:17.001Z</time>
      </trkpt>
      <trkpt lat="44.86127" lon="5.78748">
        <ele>907.618</ele>
        <time>2019-10-09T09:16:23.001Z</time>
      </trkpt>
      <trkpt lat="44.86088" lon="5.78783">
        <ele>910.053</ele>
        <time>2019-10-09T09:17:05.001Z</time>
      </trkpt>
      <trkpt lat="44.86041" lon="5.788">
        <ele>914.886</ele>
        <time>2019-10-09T09:18:02Z</time>
      </trkpt>
      <trkpt lat="44.85975" lon="5.78809">
        <ele>911.188</ele>
        <time>2019-10-09T09:18:35.001Z</time>
      </trkpt>
      <trkpt lat="44.85919" lon="5.78836">
        <ele>916.532</ele>
        <time>2019-10-09T09:19:08.001Z</time>
      </trkpt>
      <trkpt lat="44.85865" lon="5.78865">
        <ele>918.097</ele>
        <time>2019-10-09T09:19:41.001Z</time>
      </trkpt>
      <trkpt lat="44.85809" lon="5.78886">
        <ele>923.676</ele>
        <time>2019-10-09T09:20:17.001Z</time>
      </trkpt>
      <trkpt lat="44.85756" lon="5.78889">
        <ele>935.399</ele>
        <time>2019-10-09T09:20:50.001Z</time>
      </trkpt>
      <trkpt lat="44.85668" lon="5.78928">
        <ele>933.641</ele>
        <time>2019-10-09T09:21:20.001Z</time>
      </trkpt>
      <trkpt lat="44.8553" lon="5.7903">
        <ele>927.244</ele>
        <time>2019-10-09T09:21:50.001Z</time>
      </trkpt>
      <trkpt lat="44.85377" lon="5.79125">
        <ele>919.887</ele>
        <time>2019-10-09T09:22:20.001Z</time>
      </trkpt>
      <trkpt lat="44.85275" lon="5.79232">
        <ele>899.196</ele>
        <time>2019-10-09T09:22:50.001Z</time>
      </trkpt>
      <trkpt lat="44.85013" lon="5.79465">
        <ele>866.708</ele>
        <time>2019-10-09T09:23:20.001Z</time>
      </trkpt>
      <trkpt lat="44.84859" lon="5.79645">
        <ele>855.1</ele>
        <time>2019-10-09T09:23:50.001Z</time>
      </trkpt>
      <trkpt lat="44.84802" lon="5.79759">
        <ele>855.904</ele>
        <time>2019-10-09T09:24:20.001Z</time>
      </trkpt>
      <trkpt lat="44.84807" lon="5.79907">
        <ele>864.763</ele>
        <time>2019-10-09T09:24:50.001Z</time>
      </trkpt>
      <trkpt lat="44.8473" lon="5.79944">
        <ele>868.979</ele>
        <time>2019-10-09T09:25:20.001Z</time>
      </trkpt>
      <trkpt lat="44.84675" lon="5.80036">
        <ele>870.423</ele>
        <time>2019-10-09T09:25:50.001Z</time>
      </trkpt>
      <trkpt lat="44.84635" lon="5.80149">
        <ele>874.432</ele>
        <time>2019-10-09T09:26:20.001Z</time>
      </trkpt>
      <trkpt lat="44.84607" lon="5.80268">
        <ele>875.138</ele>
        <time>2019-10-09T09:26:50.001Z</time>
      </trkpt>
      <trkpt lat="44.84618" lon="5.80378">
        <ele>874.779</ele>
        <time>2019-10-09T09:27:20.001Z</time>
      </trkpt>
      <trkpt lat="44.84608" lon="5.80476">
        <ele>882.539</ele>
        <time>2019-10-09T09:27:50.001Z</time>
      </trkpt>
      <trkpt lat="44.84596" lon="5.80575">
        <ele>885.92</ele>
        <time>2019-10-09T09:28:20.001Z</time>
      </trkpt>
      <trkpt lat="44.84588" lon="5.80678">
        <ele>889.484</ele>
        <time>2019-10-09T09:28:50.001Z</time>
      </trkpt>
      <trkpt lat="44.84589" lon="5.80787">
        <ele>885.583</ele>
        <time>2019-10-09T09:29:20.001Z</time>
      </trkpt>
      <trkpt lat="44.84586" lon="5.80888">
        <ele>887.054</ele>
        <time>2019-10-09T09:29:50.001Z</time>
      </trkpt>
      <trkpt lat="44.84566" lon="5.80985">
        <ele>889.859</ele>
        <time>2019-10-09T09:30:20.001Z</time>
      </trkpt>
      <trkpt lat="44.84548" lon="5.81073">
        <ele>894.613</ele>
        <time>2019-10-09T09:30:50.001Z</time>
      </trkpt>
      <trkpt lat="44.84522" lon="5.81161">
        <ele>897.881</ele>
        <time>2019-10-09T09:31:20.001Z</time>
      </trkpt>
      <trkpt lat="44.84463" lon="5.81173">
        <ele>896.322</ele>
        <time>2019-10-09T09:31:50.001Z</time>
      </trkpt>
      <trkpt lat="44.84422" lon="5.81245">
        <ele>898.943</ele>
        <time>2019-10-09T09:32:20.001Z</time>
      </trkpt>
      <trkpt lat="44.84404" lon="5.81385">
        <ele>899.318</ele>
        <time>2019-10-09T09:32:50.001Z</time>
      </trkpt>
      <trkpt lat="44.84384" lon="5.81535">
        <ele>897.043</ele>
        <time>2019-10-09T09:33:20.001Z</time>
      </trkpt>
      <trkpt lat="44.84385" lon="5.81691">
        <ele>897.61</ele>
        <time>2019-10-09T09:33:50.001Z</time>
      </trkpt>
      <trkpt lat="44.84396" lon="5.81853">
        <ele>895.193</ele>
        <time>2019-10-09T09:34:20.001Z</time>
      </trkpt>
      <trkpt lat="44.84374" lon="5.8201">
        <ele>896.454</ele>
        <time>2019-10-09T09:34:50.001Z</time>
      </trkpt>
      <trkpt lat="44.84345" lon="5.82171">
        <ele>893.997</ele>
        <time>2019-10-09T09:35:20.001Z</time>
      </trkpt>
      <trkpt lat="44.84294" lon="5.82336">
        <ele>892.808</ele>
        <time>2019-10-09T09:35:50.001Z</time>
      </trkpt>
      <trkpt lat="44.84208" lon="5.82472">
        <ele>889.853</ele>
        <time>2019-10-09T09:36:20.001Z</time>
      </trkpt>
      <trkpt lat="44.84117" lon="5.82607">
        <ele>888.039</ele>
        <time>2019-10-09T09:36:53.001Z</time>
      </trkpt>
      <trkpt lat="44.83993" lon="5.82755">
        <ele>885.14</ele>
        <time>2019-10-09T09:37:23.001Z</time>
      </trkpt>
      <trkpt lat="44.83923" lon="5.82902">
        <ele>887.74</ele>
        <time>2019-10-09T09:37:53.001Z</time>
      </trkpt>
      <trkpt lat="44.83867" lon="5.83023">
        <ele>890.112</ele>
        <time>2019-10-09T09:38:23.001Z</time>
      </trkpt>
      <trkpt lat="44.83765" lon="5.83114">
        <ele>882.466</ele>
        <time>2019-10-09T09:38:53.001Z</time>
      </trkpt>
      <trkpt lat="44.83631" lon="5.83239">
        <ele>879.501</ele>
        <time>2019-10-09T09:39:23.001Z</time>
      </trkpt>
      <trkpt lat="44.83545" lon="5.83363">
        <ele>883.348</ele>
        <time>2019-10-09T09:39:53.001Z</time>
      </trkpt>
      <trkpt lat="44.83449" lon="5.83477">
        <ele>880.499</ele>
        <time>2019-10-09T09:40:23.001Z</time>
      </trkpt>
      <trkpt lat="44.83349" lon="5.8358">
        <ele>880.998</ele>
        <time>2019-10-09T09:40:53.001Z</time>
      </trkpt>
      <trkpt lat="44.83262" lon="5.83668">
        <ele>881.308</ele>
        <time>2019-10-09T09:41:23.001Z</time>
      </trkpt>
      <trkpt lat="44.83165" lon="5.83708">
        <ele>880.757</ele>
        <time>2019-10-09T09:41:53.001Z</time>
      </trkpt>
      <trkpt lat="44.83064" lon="5.83656">
        <ele>884.195</ele>
        <time>2019-10-09T09:42:23.001Z</time>
      </trkpt>
      <trkpt lat="44.82997" lon="5.8369">
        <ele>885.355</ele>
        <time>2019-10-09T09:42:53.001Z</time>
      </trkpt>
      <trkpt lat="44.8298" lon="5.83787">
        <ele>888.136</ele>
        <time>2019-10-09T09:43:23.001Z</time>
      </trkpt>
      <trkpt lat="44.82923" lon="5.83831">
        <ele>892.463</ele>
        <time>2019-10-09T09:43:53.001Z</time>
      </trkpt>
      <trkpt lat="44.82865" lon="5.83878">
        <ele>896.776</ele>
        <time>2019-10-09T09:44:23.001Z</time>
      </trkpt>
      <trkpt lat="44.82808" lon="5.83942">
        <ele>898.287</ele>
        <time>2019-10-09T09:44:53.001Z</time>
      </trkpt>
      <trkpt lat="44.82766" lon="5.84026">
        <ele>903.788</ele>
        <time>2019-10-09T09:45:23.001Z</time>
      </trkpt>
      <trkpt lat="44.82713" lon="5.84127">
        <ele>901.97</ele>
        <time>2019-10-09T09:49:53.001Z</time>
      </trkpt>
      <trkpt lat="44.82701" lon="5.8426">
        <ele>897.376</ele>
        <time>2019-10-09T09:50:23.001Z</time>
      </trkpt>
      <trkpt lat="44.82723" lon="5.84341">
        <ele>901.745</ele>
        <time>2019-10-09T09:50:56.001Z</time>
      </trkpt>
      <trkpt lat="44.82734" lon="5.84426">
        <ele>909.222</ele>
        <time>2019-10-09T09:51:26.001Z</time>
      </trkpt>
      <trkpt lat="44.82735" lon="5.84511">
        <ele>910.183</ele>
        <time>2019-10-09T09:51:56.001Z</time>
      </trkpt>
      <trkpt lat="44.82697" lon="5.84581">
        <ele>915.959</ele>
        <time>2019-10-09T09:52:26.001Z</time>
      </trkpt>
      <trkpt lat="44.82655" lon="5.84637">
        <ele>918.919</ele>
        <time>2019-10-09T09:52:56.001Z</time>
      </trkpt>
      <trkpt lat="44.82611" lon="5.84692">
        <ele>920.178</ele>
        <time>2019-10-09T09:53:26.001Z</time>
      </trkpt>
      <trkpt lat="44.82578" lon="5.84761">
        <ele>920.705</ele>
        <time>2019-10-09T09:53:56.001Z</time>
      </trkpt>
      <trkpt lat="44.82544" lon="5.84829">
        <ele>926.672</ele>
        <time>2019-10-09T09:54:26.001Z</time>
      </trkpt>
      <trkpt lat="44.82505" lon="5.84894">
        <ele>931.793</ele>
        <time>2019-10-09T09:54:56.001Z</time>
      </trkpt>
      <trkpt lat="44.82463" lon="5.84962">
        <ele>933.454</ele>
        <time>2019-10-09T09:55:29.001Z</time>
      </trkpt>
      <trkpt lat="44.82422" lon="5.85036">
        <ele>934.973</ele>
        <time>2019-10-09T09:55:59.001Z</time>
      </trkpt>
      <trkpt lat="44.82354" lon="5.85128">
        <ele>940.11</ele>
        <time>2019-10-09T09:56:29.001Z</time>
      </trkpt>
      <trkpt lat="44.82241" lon="5.85263">
        <ele>935.471</ele>
        <time>2019-10-09T09:56:59.001Z</time>
      </trkpt>
      <trkpt lat="44.82178" lon="5.85353">
        <ele>939.108</ele>
        <time>2019-10-09T09:57:29.001Z</time>
      </trkpt>
      <trkpt lat="44.82127" lon="5.85437">
        <ele>941.494</ele>
        <time>2019-10-09T09:57:59.001Z</time>
      </trkpt>
      <trkpt lat="44.82075" lon="5.85544">
        <ele>938.582</ele>
        <time>2019-10-09T09:58:29.001Z</time>
      </trkpt>
      <trkpt lat="44.8201" lon="5.85617">
        <ele>941.366</ele>
        <time>2019-10-09T09:58:59.001Z</time>
      </trkpt>
      <trkpt lat="44.81975" lon="5.85718">
        <ele>944.927</ele>
        <time>2019-10-09T09:59:32.001Z</time>
      </trkpt>
      <trkpt lat="44.81933" lon="5.85839">
        <ele>944.842</ele>
        <time>2019-10-09T10:00:02Z</time>
      </trkpt>
      <trkpt lat="44.81918" lon="5.85956">
        <ele>949.445</ele>
        <time>2019-10-09T10:00:32.001Z</time>
      </trkpt>
      <trkpt lat="44.81873" lon="5.86066">
        <ele>944.531</ele>
        <time>2019-10-09T10:01:02Z</time>
      </trkpt>
      <trkpt lat="44.81702" lon="5.85919">
        <ele>936.459</ele>
        <time>2019-10-09T10:01:32.001Z</time>
      </trkpt>
      <trkpt lat="44.81526" lon="5.86126">
        <ele>914.735</ele>
        <time>2019-10-09T10:02:02Z</time>
      </trkpt>
      <trkpt lat="44.81282" lon="5.86301">
        <ele>887.39</ele>
        <time>2019-10-09T10:02:32.001Z</time>
      </trkpt>
      <trkpt lat="44.81252" lon="5.86502">
        <ele>874.16</ele>
        <time>2019-10-09T10:03:02Z</time>
      </trkpt>
      <trkpt lat="44.81317" lon="5.86552">
        <ele>882.939</ele>
        <time>2019-10-09T10:03:32.001Z</time>
      </trkpt>
      <trkpt lat="44.8139" lon="5.86558">
        <ele>895.13</ele>
        <time>2019-10-09T10:04:11.001Z</time>
      </trkpt>
      <trkpt lat="44.81447" lon="5.86554">
        <ele>901.648</ele>
        <time>2019-10-09T10:04:41.001Z</time>
      </trkpt>
      <trkpt lat="44.8151" lon="5.86525">
        <ele>904.143</ele>
        <time>2019-10-09T10:05:14.001Z</time>
      </trkpt>
      <trkpt lat="44.81571" lon="5.86538">
        <ele>910.407</ele>
        <time>2019-10-09T10:05:50.001Z</time>
      </trkpt>
      <trkpt lat="44.81633" lon="5.86583">
        <ele>910.35</ele>
        <time>2019-10-09T10:06:23.001Z</time>
      </trkpt>
      <trkpt lat="44.81693" lon="5.86621">
        <ele>911.709</ele>
        <time>2019-10-09T10:06:56.001Z</time>
      </trkpt>
      <trkpt lat="44.81726" lon="5.86692">
        <ele>904.56</ele>
        <time>2019-10-09T10:07:26.001Z</time>
      </trkpt>
      <trkpt lat="44.81673" lon="5.86755">
        <ele>904.305</ele>
        <time>2019-10-09T10:07:56.001Z</time>
      </trkpt>
      <trkpt lat="44.81608" lon="5.86786">
        <ele>908.561</ele>
        <time>2019-10-09T10:08:26.001Z</time>
      </trkpt>
      <trkpt lat="44.8154" lon="5.86817">
        <ele>911.784</ele>
        <time>2019-10-09T10:08:56.001Z</time>
      </trkpt>
      <trkpt lat="44.8147" lon="5.86851">
        <ele>914.57</ele>
        <time>2019-10-09T10:09:26.001Z</time>
      </trkpt>
      <trkpt lat="44.814" lon="5.86885">
        <ele>915.585</ele>
        <time>2019-10-09T10:09:56.001Z</time>
      </trkpt>
      <trkpt lat="44.81329" lon="5.8692">
        <ele>917.499</ele>
        <time>2019-10-09T10:10:26.001Z</time>
      </trkpt>
      <trkpt lat="44.81252" lon="5.86954">
        <ele>919.061</ele>
        <time>2019-10-09T10:10:56.001Z</time>
      </trkpt>
      <trkpt lat="44.81154" lon="5.86906">
        <ele>917.326</ele>
        <time>2019-10-09T10:11:26.001Z</time>
      </trkpt>
      <trkpt lat="44.80899" lon="5.8689">
        <ele>908.646</ele>
        <time>2019-10-09T10:11:56.001Z</time>
      </trkpt>
      <trkpt lat="44.80678" lon="5.86991">
        <ele>885.206</ele>
        <time>2019-10-09T10:12:26.001Z</time>
      </trkpt>
      <trkpt lat="44.80758" lon="5.87031">
        <ele>881.177</ele>
        <time>2019-10-09T10:12:56.001Z</time>
      </trkpt>
      <trkpt lat="44.80833" lon="5.87043">
        <ele>883.637</ele>
        <time>2019-10-09T10:13:26.001Z</time>
      </trkpt>
      <trkpt lat="44.80899" lon="5.8708">
        <ele>893.417</ele>
        <time>2019-10-09T10:13:59.001Z</time>
      </trkpt>
      <trkpt lat="44.80953" lon="5.87125">
        <ele>908.541</ele>
        <time>2019-10-09T10:14:29.001Z</time>
      </trkpt>
      <trkpt lat="44.81008" lon="5.87181">
        <ele>919.885</ele>
        <time>2019-10-09T10:14:59.001Z</time>
      </trkpt>
      <trkpt lat="44.81064" lon="5.87236">
        <ele>921.605</ele>
        <time>2019-10-09T10:15:29.001Z</time>
      </trkpt>
      <trkpt lat="44.81086" lon="5.87329">
        <ele>914.644</ele>
        <time>2019-10-09T10:15:59.001Z</time>
      </trkpt>
      <trkpt lat="44.81088" lon="5.87443">
        <ele>906.573</ele>
        <time>2019-10-09T10:16:29.001Z</time>
      </trkpt>
      <trkpt lat="44.81089" lon="5.87531">
        <ele>909.775</ele>
        <time>2019-10-09T10:16:59.001Z</time>
      </trkpt>
      <trkpt lat="44.81088" lon="5.87643">
        <ele>908.373</ele>
        <time>2019-10-09T10:17:29.001Z</time>
      </trkpt>
      <trkpt lat="44.81082" lon="5.87776">
        <ele>912.608</ele>
        <time>2019-10-09T10:17:59.001Z</time>
      </trkpt>
      <trkpt lat="44.81141" lon="5.87924">
        <ele>910.097</ele>
        <time>2019-10-09T10:18:32.001Z</time>
      </trkpt>
      <trkpt lat="44.81184" lon="5.88036">
        <ele>906.545</ele>
        <time>2019-10-09T10:19:02Z</time>
      </trkpt>
      <trkpt lat="44.81219" lon="5.88173">
        <ele>906.072</ele>
        <time>2019-10-09T10:19:32.001Z</time>
      </trkpt>
      <trkpt lat="44.81184" lon="5.88318">
        <ele>906.922</ele>
        <time>2019-10-09T10:20:02Z</time>
      </trkpt>
      <trkpt lat="44.81135" lon="5.8845">
        <ele>903.138</ele>
        <time>2019-10-09T10:20:32.001Z</time>
      </trkpt>
      <trkpt lat="44.8107" lon="5.88563">
        <ele>903.524</ele>
        <time>2019-10-09T10:21:02Z</time>
      </trkpt>
      <trkpt lat="44.81006" lon="5.88685">
        <ele>904.879</ele>
        <time>2019-10-09T10:21:32.001Z</time>
      </trkpt>
      <trkpt lat="44.80958" lon="5.88821">
        <ele>903.279</ele>
        <time>2019-10-09T10:22:02Z</time>
      </trkpt>
      <trkpt lat="44.8091" lon="5.88961">
        <ele>902.327</ele>
        <time>2019-10-09T10:22:32.001Z</time>
      </trkpt>
      <trkpt lat="44.80859" lon="5.8911">
        <ele>901.162</ele>
        <time>2019-10-09T10:23:02Z</time>
      </trkpt>
      <trkpt lat="44.80806" lon="5.89257">
        <ele>902.125</ele>
        <time>2019-10-09T10:23:32.001Z</time>
      </trkpt>
      <trkpt lat="44.80762" lon="5.89384">
        <ele>903.037</ele>
        <time>2019-10-09T10:24:02Z</time>
      </trkpt>
      <trkpt lat="44.80729" lon="5.89506">
        <ele>906.275</ele>
        <time>2019-10-09T10:24:32.001Z</time>
      </trkpt>
      <trkpt lat="44.80703" lon="5.89635">
        <ele>908.51</ele>
        <time>2019-10-09T10:25:02Z</time>
      </trkpt>
      <trkpt lat="44.80679" lon="5.89767">
        <ele>910.385</ele>
        <time>2019-10-09T10:25:32.001Z</time>
      </trkpt>
      <trkpt lat="44.80653" lon="5.89904">
        <ele>911.536</ele>
        <time>2019-10-09T10:26:02Z</time>
      </trkpt>
      <trkpt lat="44.80627" lon="5.90043">
        <ele>912.832</ele>
        <time>2019-10-09T10:26:32.001Z</time>
      </trkpt>
      <trkpt lat="44.80605" lon="5.90143">
        <ele>918.796</ele>
        <time>2019-10-09T10:27:02Z</time>
      </trkpt>
      <trkpt lat="44.80575" lon="5.90216">
        <ele>923.792</ele>
        <time>2019-10-09T10:27:32.001Z</time>
      </trkpt>
      <trkpt lat="44.80535" lon="5.90277">
        <ele>924.102</ele>
        <time>2019-10-09T10:28:02Z</time>
      </trkpt>
      <trkpt lat="44.8049" lon="5.90322">
        <ele>930.782</ele>
        <time>2019-10-09T10:28:32.001Z</time>
      </trkpt>
      <trkpt lat="44.80441" lon="5.90366">
        <ele>935.42</ele>
        <time>2019-10-09T10:29:02Z</time>
      </trkpt>
      <trkpt lat="44.80391" lon="5.90412">
        <ele>937.186</ele>
        <time>2019-10-09T10:29:32.001Z</time>
      </trkpt>
      <trkpt lat="44.8034" lon="5.90461">
        <ele>940.065</ele>
        <time>2019-10-09T10:30:02Z</time>
      </trkpt>
      <trkpt lat="44.8029" lon="5.90509">
        <ele>944.916</ele>
        <time>2019-10-09T10:30:32.001Z</time>
      </trkpt>
      <trkpt lat="44.80242" lon="5.9056">
        <ele>945.554</ele>
        <time>2019-10-09T10:31:02Z</time>
      </trkpt>
      <trkpt lat="44.80186" lon="5.90617">
        <ele>946.465</ele>
        <time>2019-10-09T10:31:32.001Z</time>
      </trkpt>
      <trkpt lat="44.80128" lon="5.90674">
        <ele>946.833</ele>
        <time>2019-10-09T10:32:02Z</time>
      </trkpt>
      <trkpt lat="44.80061" lon="5.90739">
        <ele>944.697</ele>
        <time>2019-10-09T10:32:32.001Z</time>
      </trkpt>
      <trkpt lat="44.79934" lon="5.90734">
        <ele>941.817</ele>
        <time>2019-10-09T10:33:02Z</time>
      </trkpt>
      <trkpt lat="44.79783" lon="5.9067">
        <ele>932.088</ele>
        <time>2019-10-09T10:33:32.001Z</time>
      </trkpt>
      <trkpt lat="44.79725" lon="5.90806">
        <ele>927.285</ele>
        <time>2019-10-09T10:34:05.001Z</time>
      </trkpt>
      <trkpt lat="44.79686" lon="5.90774">
        <ele>929.674</ele>
        <time>2019-10-09T10:38:53.001Z</time>
      </trkpt>
      <trkpt lat="44.79685" lon="5.90772">
        <ele>925.444</ele>
        <time>2019-10-09T11:12:50.001Z</time>
      </trkpt>
      <trkpt lat="44.79709" lon="5.90856">
        <ele>927.158</ele>
        <time>2019-10-09T11:18:53.001Z</time>
      </trkpt>
      <trkpt lat="44.79666" lon="5.90989">
        <ele>929.963</ele>
        <time>2019-10-09T11:19:23.001Z</time>
      </trkpt>
      <trkpt lat="44.79592" lon="5.91049">
        <ele>929.006</ele>
        <time>2019-10-09T11:19:53.001Z</time>
      </trkpt>
      <trkpt lat="44.79497" lon="5.91038">
        <ele>931.237</ele>
        <time>2019-10-09T11:20:26.001Z</time>
      </trkpt>
      <trkpt lat="44.79401" lon="5.91026">
        <ele>932.73</ele>
        <time>2019-10-09T11:20:56.001Z</time>
      </trkpt>
      <trkpt lat="44.79302" lon="5.91013">
        <ele>931.495</ele>
        <time>2019-10-09T11:21:26.001Z</time>
      </trkpt>
      <trkpt lat="44.79203" lon="5.91001">
        <ele>932.197</ele>
        <time>2019-10-09T11:21:56.001Z</time>
      </trkpt>
      <trkpt lat="44.79101" lon="5.90988">
        <ele>934.958</ele>
        <time>2019-10-09T11:22:26.001Z</time>
      </trkpt>
      <trkpt lat="44.78985" lon="5.90967">
        <ele>936.987</ele>
        <time>2019-10-09T11:22:56.001Z</time>
      </trkpt>
      <trkpt lat="44.78879" lon="5.90947">
        <ele>936.207</ele>
        <time>2019-10-09T11:23:26.001Z</time>
      </trkpt>
      <trkpt lat="44.78777" lon="5.90928">
        <ele>936.675</ele>
        <time>2019-10-09T11:23:56.001Z</time>
      </trkpt>
      <trkpt lat="44.78683" lon="5.9091">
        <ele>937.792</ele>
        <time>2019-10-09T11:24:26.001Z</time>
      </trkpt>
      <trkpt lat="44.78584" lon="5.90893">
        <ele>939.893</ele>
        <time>2019-10-09T11:24:56.001Z</time>
      </trkpt>
      <trkpt lat="44.78484" lon="5.90874">
        <ele>940.878</ele>
        <time>2019-10-09T11:25:26.001Z</time>
      </trkpt>
      <trkpt lat="44.78389" lon="5.90855">
        <ele>942.37</ele>
        <time>2019-10-09T11:25:56.001Z</time>
      </trkpt>
      <trkpt lat="44.78295" lon="5.90839">
        <ele>945.45</ele>
        <time>2019-10-09T11:26:26.001Z</time>
      </trkpt>
      <trkpt lat="44.78195" lon="5.90819">
        <ele>946.17</ele>
        <time>2019-10-09T11:26:56.001Z</time>
      </trkpt>
      <trkpt lat="44.78102" lon="5.90801">
        <ele>947.757</ele>
        <time>2019-10-09T11:27:26.001Z</time>
      </trkpt>
      <trkpt lat="44.78009" lon="5.90784">
        <ele>949.621</ele>
        <time>2019-10-09T11:27:56.001Z</time>
      </trkpt>
      <trkpt lat="44.77913" lon="5.90766">
        <ele>950.172</ele>
        <time>2019-10-09T11:28:26.001Z</time>
      </trkpt>
      <trkpt lat="44.77815" lon="5.90747">
        <ele>950.428</ele>
        <time>2019-10-09T11:28:56.001Z</time>
      </trkpt>
      <trkpt lat="44.77719" lon="5.90731">
        <ele>950.453</ele>
        <time>2019-10-09T11:29:26.001Z</time>
      </trkpt>
      <trkpt lat="44.77624" lon="5.90712">
        <ele>953.039</ele>
        <time>2019-10-09T11:29:56.001Z</time>
      </trkpt>
      <trkpt lat="44.77528" lon="5.90689">
        <ele>953.723</ele>
        <time>2019-10-09T11:30:26.001Z</time>
      </trkpt>
      <trkpt lat="44.77438" lon="5.90666">
        <ele>952.582</ele>
        <time>2019-10-09T11:30:56.001Z</time>
      </trkpt>
      <trkpt lat="44.77422" lon="5.9054">
        <ele>956.248</ele>
        <time>2019-10-09T11:31:26.001Z</time>
      </trkpt>
      <trkpt lat="44.77397" lon="5.90396">
        <ele>961.928</ele>
        <time>2019-10-09T11:31:56.001Z</time>
      </trkpt>
      <trkpt lat="44.77433" lon="5.90251">
        <ele>969.337</ele>
        <time>2019-10-09T11:32:26.001Z</time>
      </trkpt>
      <trkpt lat="44.77467" lon="5.90097">
        <ele>978.783</ele>
        <time>2019-10-09T11:32:56.001Z</time>
      </trkpt>
      <trkpt lat="44.77523" lon="5.89956">
        <ele>980.366</ele>
        <time>2019-10-09T11:33:26.001Z</time>
      </trkpt>
      <trkpt lat="44.77604" lon="5.89894">
        <ele>978.194</ele>
        <time>2019-10-09T11:33:56.001Z</time>
      </trkpt>
      <trkpt lat="44.77575" lon="5.89804">
        <ele>986.32</ele>
        <time>2019-10-09T11:34:26.001Z</time>
      </trkpt>
      <trkpt lat="44.77505" lon="5.89797">
        <ele>971.921</ele>
        <time>2019-10-09T11:34:56.001Z</time>
      </trkpt>
      <trkpt lat="44.77443" lon="5.89845">
        <ele>979.503</ele>
        <time>2019-10-09T11:35:26.001Z</time>
      </trkpt>
      <trkpt lat="44.7737" lon="5.89873">
        <ele>979.426</ele>
        <time>2019-10-09T11:35:56.001Z</time>
      </trkpt>
      <trkpt lat="44.77283" lon="5.89873">
        <ele>975.653</ele>
        <time>2019-10-09T11:36:26.001Z</time>
      </trkpt>
      <trkpt lat="44.77207" lon="5.89931">
        <ele>974.663</ele>
        <time>2019-10-09T11:36:56.001Z</time>
      </trkpt>
      <trkpt lat="44.77132" lon="5.89953">
        <ele>978.646</ele>
        <time>2019-10-09T11:37:26.001Z</time>
      </trkpt>
      <trkpt lat="44.77063" lon="5.89901">
        <ele>977.451</ele>
        <time>2019-10-09T11:37:56.001Z</time>
      </trkpt>
      <trkpt lat="44.77035" lon="5.89805">
        <ele>982.51</ele>
        <time>2019-10-09T11:38:29.001Z</time>
      </trkpt>
      <trkpt lat="44.77036" lon="5.89693">
        <ele>987.358</ele>
        <time>2019-10-09T11:38:59.001Z</time>
      </trkpt>
      <trkpt lat="44.7699" lon="5.89597">
        <ele>986.218</ele>
        <time>2019-10-09T11:39:29.001Z</time>
      </trkpt>
      <trkpt lat="44.76935" lon="5.89524">
        <ele>986.957</ele>
        <time>2019-10-09T11:39:59.001Z</time>
      </trkpt>
      <trkpt lat="44.76893" lon="5.89418">
        <ele>990.34</ele>
        <time>2019-10-09T11:40:29.001Z</time>
      </trkpt>
      <trkpt lat="44.76775" lon="5.8941">
        <ele>991.475</ele>
        <time>2019-10-09T11:40:59.001Z</time>
      </trkpt>
      <trkpt lat="44.76678" lon="5.89335">
        <ele>996.006</ele>
        <time>2019-10-09T11:41:29.001Z</time>
      </trkpt>
      <trkpt lat="44.76509" lon="5.89174">
        <ele>986.956</ele>
        <time>2019-10-09T11:41:59.001Z</time>
      </trkpt>
      <trkpt lat="44.76324" lon="5.88945">
        <ele>986.116</ele>
        <time>2019-10-09T11:42:29.001Z</time>
      </trkpt>
      <trkpt lat="44.76187" lon="5.88719">
        <ele>970.31</ele>
        <time>2019-10-09T11:42:59.001Z</time>
      </trkpt>
      <trkpt lat="44.76023" lon="5.88521">
        <ele>959.096</ele>
        <time>2019-10-09T11:43:29.001Z</time>
      </trkpt>
      <trkpt lat="44.75767" lon="5.88461">
        <ele>944.651</ele>
        <time>2019-10-09T11:43:59.001Z</time>
      </trkpt>
      <trkpt lat="44.75546" lon="5.88493">
        <ele>934.214</ele>
        <time>2019-10-09T11:44:29.001Z</time>
      </trkpt>
      <trkpt lat="44.7534" lon="5.88374">
        <ele>929.565</ele>
        <time>2019-10-09T11:44:59.001Z</time>
      </trkpt>
      <trkpt lat="44.75117" lon="5.88357">
        <ele>918.132</ele>
        <time>2019-10-09T11:45:29.001Z</time>
      </trkpt>
      <trkpt lat="44.75031" lon="5.88508">
        <ele>913.342</ele>
        <time>2019-10-09T11:45:59.001Z</time>
      </trkpt>
      <trkpt lat="44.74953" lon="5.88497">
        <ele>917.855</ele>
        <time>2019-10-09T11:46:35.001Z</time>
      </trkpt>
      <trkpt lat="44.74895" lon="5.8852">
        <ele>929.159</ele>
        <time>2019-10-09T11:47:05.001Z</time>
      </trkpt>
      <trkpt lat="44.74837" lon="5.88523">
        <ele>941.255</ele>
        <time>2019-10-09T11:47:38.001Z</time>
      </trkpt>
      <trkpt lat="44.74783" lon="5.88531">
        <ele>941.288</ele>
        <time>2019-10-09T11:48:08.001Z</time>
      </trkpt>
      <trkpt lat="44.74736" lon="5.88566">
        <ele>933.946</ele>
        <time>2019-10-09T11:48:38.001Z</time>
      </trkpt>
      <trkpt lat="44.747" lon="5.88619">
        <ele>939.265</ele>
        <time>2019-10-09T11:49:11.001Z</time>
      </trkpt>
      <trkpt lat="44.74651" lon="5.88681">
        <ele>961.677</ele>
        <time>2019-10-09T11:49:53.001Z</time>
      </trkpt>
      <trkpt lat="44.74609" lon="5.88719">
        <ele>964.978</ele>
        <time>2019-10-09T11:50:26.001Z</time>
      </trkpt>
      <trkpt lat="44.74572" lon="5.88777">
        <ele>967.822</ele>
        <time>2019-10-09T11:50:59.001Z</time>
      </trkpt>
      <trkpt lat="44.74506" lon="5.88799">
        <ele>974.637</ele>
        <time>2019-10-09T11:51:44.001Z</time>
      </trkpt>
      <trkpt lat="44.74458" lon="5.88828">
        <ele>972.149</ele>
        <time>2019-10-09T11:52:14.001Z</time>
      </trkpt>
      <trkpt lat="44.74426" lon="5.88897">
        <ele>969.964</ele>
        <time>2019-10-09T11:52:47.001Z</time>
      </trkpt>
      <trkpt lat="44.74407" lon="5.88983">
        <ele>977.245</ele>
        <time>2019-10-09T11:53:20.001Z</time>
      </trkpt>
      <trkpt lat="44.74369" lon="5.89037">
        <ele>980.962</ele>
        <time>2019-10-09T11:53:50.001Z</time>
      </trkpt>
      <trkpt lat="44.74317" lon="5.89063">
        <ele>994.676</ele>
        <time>2019-10-09T11:54:20.001Z</time>
      </trkpt>
      <trkpt lat="44.74269" lon="5.89054">
        <ele>993.766</ele>
        <time>2019-10-09T11:54:50.001Z</time>
      </trkpt>
      <trkpt lat="44.74218" lon="5.89086">
        <ele>994.222</ele>
        <time>2019-10-09T11:55:20.001Z</time>
      </trkpt>
      <trkpt lat="44.74171" lon="5.89119">
        <ele>1007.364</ele>
        <time>2019-10-09T11:55:50.001Z</time>
      </trkpt>
      <trkpt lat="44.7412" lon="5.89142">
        <ele>1008.095</ele>
        <time>2019-10-09T11:56:20.001Z</time>
      </trkpt>
      <trkpt lat="44.74068" lon="5.89169">
        <ele>1005.558</ele>
        <time>2019-10-09T11:56:50.001Z</time>
      </trkpt>
      <trkpt lat="44.74" lon="5.89196">
        <ele>1011.165</ele>
        <time>2019-10-09T11:57:23.001Z</time>
      </trkpt>
      <trkpt lat="44.73936" lon="5.89203">
        <ele>991.238</ele>
        <time>2019-10-09T11:57:59.001Z</time>
      </trkpt>
      <trkpt lat="44.73882" lon="5.89197">
        <ele>1002.243</ele>
        <time>2019-10-09T11:58:29.001Z</time>
      </trkpt>
      <trkpt lat="44.7383" lon="5.89143">
        <ele>1009.702</ele>
        <time>2019-10-09T11:59:02Z</time>
      </trkpt>
      <trkpt lat="44.73766" lon="5.89132">
        <ele>1023.162</ele>
        <time>2019-10-09T11:59:32.001Z</time>
      </trkpt>
      <trkpt lat="44.73717" lon="5.89203">
        <ele>1026.133</ele>
        <time>2019-10-09T12:00:02Z</time>
      </trkpt>
      <trkpt lat="44.73681" lon="5.89282">
        <ele>1025.639</ele>
        <time>2019-10-09T12:00:32.001Z</time>
      </trkpt>
      <trkpt lat="44.73645" lon="5.89359">
        <ele>1026.169</ele>
        <time>2019-10-09T12:01:02Z</time>
      </trkpt>
      <trkpt lat="44.73638" lon="5.89447">
        <ele>1026.488</ele>
        <time>2019-10-09T12:01:32.001Z</time>
      </trkpt>
      <trkpt lat="44.73589" lon="5.89465">
        <ele>1029.461</ele>
        <time>2019-10-09T12:02:05.001Z</time>
      </trkpt>
      <trkpt lat="44.7353" lon="5.89442">
        <ele>1034.488</ele>
        <time>2019-10-09T12:02:35.001Z</time>
      </trkpt>
      <trkpt lat="44.73464" lon="5.89474">
        <ele>1041.01</ele>
        <time>2019-10-09T12:03:08.001Z</time>
      </trkpt>
      <trkpt lat="44.73422" lon="5.89552">
        <ele>1040.398</ele>
        <time>2019-10-09T12:03:38.001Z</time>
      </trkpt>
      <trkpt lat="44.73365" lon="5.89568">
        <ele>1042.725</ele>
        <time>2019-10-09T12:04:08.001Z</time>
      </trkpt>
      <trkpt lat="44.73304" lon="5.8954">
        <ele>1047.304</ele>
        <time>2019-10-09T12:04:38.001Z</time>
      </trkpt>
      <trkpt lat="44.73251" lon="5.89592">
        <ele>1050.945</ele>
        <time>2019-10-09T12:05:08.001Z</time>
      </trkpt>
      <trkpt lat="44.73198" lon="5.8962">
        <ele>1051.262</ele>
        <time>2019-10-09T12:05:38.001Z</time>
      </trkpt>
      <trkpt lat="44.73177" lon="5.89627">
        <ele>1051.642</ele>
        <time>2019-10-09T12:11:53.001Z</time>
      </trkpt>
      <trkpt lat="44.73117" lon="5.89639">
        <ele>1056.183</ele>
        <time>2019-10-09T12:12:23.001Z</time>
      </trkpt>
      <trkpt lat="44.73056" lon="5.89655">
        <ele>1056.768</ele>
        <time>2019-10-09T12:12:53.001Z</time>
      </trkpt>
      <trkpt lat="44.72995" lon="5.89689">
        <ele>1065.875</ele>
        <time>2019-10-09T12:13:26.001Z</time>
      </trkpt>
      <trkpt lat="44.72935" lon="5.89726">
        <ele>1064.637</ele>
        <time>2019-10-09T12:13:56.001Z</time>
      </trkpt>
      <trkpt lat="44.72872" lon="5.89732">
        <ele>1067.871</ele>
        <time>2019-10-09T12:14:26.001Z</time>
      </trkpt>
      <trkpt lat="44.72812" lon="5.89743">
        <ele>1075.487</ele>
        <time>2019-10-09T12:14:56.001Z</time>
      </trkpt>
      <trkpt lat="44.72751" lon="5.89739">
        <ele>1080.426</ele>
        <time>2019-10-09T12:15:29.001Z</time>
      </trkpt>
      <trkpt lat="44.72685" lon="5.89742">
        <ele>1084.449</ele>
        <time>2019-10-09T12:15:59.001Z</time>
      </trkpt>
      <trkpt lat="44.72619" lon="5.89727">
        <ele>1094.139</ele>
        <time>2019-10-09T12:16:32.001Z</time>
      </trkpt>
      <trkpt lat="44.72555" lon="5.89704">
        <ele>1098.882</ele>
        <time>2019-10-09T12:17:02Z</time>
      </trkpt>
      <trkpt lat="44.7249" lon="5.89677">
        <ele>1101.423</ele>
        <time>2019-10-09T12:17:35.001Z</time>
      </trkpt>
      <trkpt lat="44.72416" lon="5.89637">
        <ele>1090.249</ele>
        <time>2019-10-09T12:18:05.001Z</time>
      </trkpt>
      <trkpt lat="44.7235" lon="5.89586">
        <ele>1084.554</ele>
        <time>2019-10-09T12:18:35.001Z</time>
      </trkpt>
      <trkpt lat="44.72292" lon="5.89532">
        <ele>1085.523</ele>
        <time>2019-10-09T12:19:05.001Z</time>
      </trkpt>
      <trkpt lat="44.72248" lon="5.89451">
        <ele>1090.667</ele>
        <time>2019-10-09T12:19:35.001Z</time>
      </trkpt>
      <trkpt lat="44.72202" lon="5.89357">
        <ele>1091.298</ele>
        <time>2019-10-09T12:20:05.001Z</time>
      </trkpt>
      <trkpt lat="44.72133" lon="5.89292">
        <ele>1092.088</ele>
        <time>2019-10-09T12:20:35.001Z</time>
      </trkpt>
      <trkpt lat="44.7206" lon="5.89213">
        <ele>1094.22</ele>
        <time>2019-10-09T12:21:05.001Z</time>
      </trkpt>
      <trkpt lat="44.72" lon="5.89133">
        <ele>1100.323</ele>
        <time>2019-10-09T12:21:35.001Z</time>
      </trkpt>
      <trkpt lat="44.71959" lon="5.8905">
        <ele>1104.608</ele>
        <time>2019-10-09T12:22:05.001Z</time>
      </trkpt>
      <trkpt lat="44.71908" lon="5.88967">
        <ele>1111.55</ele>
        <time>2019-10-09T12:22:38.001Z</time>
      </trkpt>
      <trkpt lat="44.7187" lon="5.88878">
        <ele>1110.897</ele>
        <time>2019-10-09T12:23:08.001Z</time>
      </trkpt>
      <trkpt lat="44.71829" lon="5.8883">
        <ele>1109.67</ele>
        <time>2019-10-09T12:23:38.001Z</time>
      </trkpt>
      <trkpt lat="44.71774" lon="5.88813">
        <ele>1110.915</ele>
        <time>2019-10-09T12:24:08.001Z</time>
      </trkpt>
      <trkpt lat="44.71729" lon="5.88773">
        <ele>1114.929</ele>
        <time>2019-10-09T12:24:38.001Z</time>
      </trkpt>
      <trkpt lat="44.71677" lon="5.88734">
        <ele>1118.815</ele>
        <time>2019-10-09T12:25:08.001Z</time>
      </trkpt>
      <trkpt lat="44.71624" lon="5.88732">
        <ele>1122.272</ele>
        <time>2019-10-09T12:25:38.001Z</time>
      </trkpt>
      <trkpt lat="44.71566" lon="5.88734">
        <ele>1127.371</ele>
        <time>2019-10-09T12:26:08.001Z</time>
      </trkpt>
      <trkpt lat="44.71517" lon="5.88693">
        <ele>1127.294</ele>
        <time>2019-10-09T12:26:38.001Z</time>
      </trkpt>
      <trkpt lat="44.71464" lon="5.88666">
        <ele>1129.665</ele>
        <time>2019-10-09T12:27:08.001Z</time>
      </trkpt>
      <trkpt lat="44.71426" lon="5.88656">
        <ele>1138.814</ele>
        <time>2019-10-09T12:30:11.001Z</time>
      </trkpt>
      <trkpt lat="44.7138" lon="5.88607">
        <ele>1141.191</ele>
        <time>2019-10-09T12:30:41.001Z</time>
      </trkpt>
      <trkpt lat="44.71378" lon="5.88639">
        <ele>1145.453</ele>
        <time>2019-10-09T12:31:17.001Z</time>
      </trkpt>
      <trkpt lat="44.71407" lon="5.88711">
        <ele>1153.077</ele>
        <time>2019-10-09T12:31:50.001Z</time>
      </trkpt>
      <trkpt lat="44.71441" lon="5.88795">
        <ele>1173.31</ele>
        <time>2019-10-09T12:32:38.001Z</time>
      </trkpt>
      <trkpt lat="44.71459" lon="5.88868">
        <ele>1189.719</ele>
        <time>2019-10-09T12:33:17.001Z</time>
      </trkpt>
      <trkpt lat="44.71434" lon="5.88952">
        <ele>1177.494</ele>
        <time>2019-10-09T12:33:53.001Z</time>
      </trkpt>
      <trkpt lat="44.71404" lon="5.89014">
        <ele>1175.467</ele>
        <time>2019-10-09T12:34:26.001Z</time>
      </trkpt>
      <trkpt lat="44.71363" lon="5.89063">
        <ele>1181.84</ele>
        <time>2019-10-09T12:35:02Z</time>
      </trkpt>
      <trkpt lat="44.71301" lon="5.89069">
        <ele>1180.308</ele>
        <time>2019-10-09T12:35:38.001Z</time>
      </trkpt>
      <trkpt lat="44.71258" lon="5.89098">
        <ele>1179.656</ele>
        <time>2019-10-09T12:36:08.001Z</time>
      </trkpt>
      <trkpt lat="44.71205" lon="5.89119">
        <ele>1190.828</ele>
        <time>2019-10-09T12:36:44.001Z</time>
      </trkpt>
      <trkpt lat="44.71142" lon="5.89131">
        <ele>1191.511</ele>
        <time>2019-10-09T12:37:26.001Z</time>
      </trkpt>
      <trkpt lat="44.71083" lon="5.8915">
        <ele>1197.386</ele>
        <time>2019-10-09T12:38:05.001Z</time>
      </trkpt>
      <trkpt lat="44.71012" lon="5.89135">
        <ele>1205.139</ele>
        <time>2019-10-09T12:38:53.001Z</time>
      </trkpt>
      <trkpt lat="44.70952" lon="5.89127">
        <ele>1210.613</ele>
        <time>2019-10-09T12:39:32.001Z</time>
      </trkpt>
      <trkpt lat="44.70882" lon="5.89106">
        <ele>1218.598</ele>
        <time>2019-10-09T12:40:20.001Z</time>
      </trkpt>
      <trkpt lat="44.70822" lon="5.8906">
        <ele>1220.227</ele>
        <time>2019-10-09T12:41:02Z</time>
      </trkpt>
      <trkpt lat="44.70776" lon="5.89003">
        <ele>1226.11</ele>
        <time>2019-10-09T12:41:41.001Z</time>
      </trkpt>
      <trkpt lat="44.70716" lon="5.88977">
        <ele>1233.281</ele>
        <time>2019-10-09T12:42:23.001Z</time>
      </trkpt>
      <trkpt lat="44.70667" lon="5.88935">
        <ele>1234.423</ele>
        <time>2019-10-09T12:42:56.001Z</time>
      </trkpt>
      <trkpt lat="44.70637" lon="5.88856">
        <ele>1232.807</ele>
        <time>2019-10-09T12:43:26.001Z</time>
      </trkpt>
      <trkpt lat="44.70596" lon="5.88787">
        <ele>1231.537</ele>
        <time>2019-10-09T12:43:56.001Z</time>
      </trkpt>
      <trkpt lat="44.70551" lon="5.88715">
        <ele>1227.911</ele>
        <time>2019-10-09T12:44:26.001Z</time>
      </trkpt>
      <trkpt lat="44.705" lon="5.88628">
        <ele>1223.914</ele>
        <time>2019-10-09T12:44:56.001Z</time>
      </trkpt>
      <trkpt lat="44.7046" lon="5.88537">
        <ele>1227.514</ele>
        <time>2019-10-09T12:45:26.001Z</time>
      </trkpt>
      <trkpt lat="44.70401" lon="5.8846">
        <ele>1226.761</ele>
        <time>2019-10-09T12:45:56.001Z</time>
      </trkpt>
      <trkpt lat="44.70324" lon="5.8842">
        <ele>1232.959</ele>
        <time>2019-10-09T12:46:29.001Z</time>
      </trkpt>
      <trkpt lat="44.70245" lon="5.8838">
        <ele>1231.281</ele>
        <time>2019-10-09T12:46:59.001Z</time>
      </trkpt>
      <trkpt lat="44.70171" lon="5.88365">
        <ele>1239.583</ele>
        <time>2019-10-09T12:47:29.001Z</time>
      </trkpt>
      <trkpt lat="44.70096" lon="5.88338">
        <ele>1245.696</ele>
        <time>2019-10-09T12:47:59.001Z</time>
      </trkpt>
      <trkpt lat="44.7001" lon="5.88288">
        <ele>1240.812</ele>
        <time>2019-10-09T12:48:29.001Z</time>
      </trkpt>
      <trkpt lat="44.69927" lon="5.88232">
        <ele>1235.734</ele>
        <time>2019-10-09T12:48:59.001Z</time>
      </trkpt>
      <trkpt lat="44.69844" lon="5.88175">
        <ele>1234.175</ele>
        <time>2019-10-09T12:49:29.001Z</time>
      </trkpt>
      <trkpt lat="44.69759" lon="5.88126">
        <ele>1238.631</ele>
        <time>2019-10-09T12:49:59.001Z</time>
      </trkpt>
      <trkpt lat="44.69676" lon="5.88104">
        <ele>1245.457</ele>
        <time>2019-10-09T12:50:29.001Z</time>
      </trkpt>
      <trkpt lat="44.69589" lon="5.88098">
        <ele>1247.392</ele>
        <time>2019-10-09T12:50:59.001Z</time>
      </trkpt>
      <trkpt lat="44.6952" lon="5.88098">
        <ele>1253.819</ele>
        <time>2019-10-09T12:51:29.001Z</time>
      </trkpt>
      <trkpt lat="44.69512" lon="5.88165">
        <ele>1253.087</ele>
        <time>2019-10-09T12:51:59.001Z</time>
      </trkpt>
      <trkpt lat="44.6956" lon="5.88223">
        <ele>1243.297</ele>
        <time>2019-10-09T12:52:29.001Z</time>
      </trkpt>
      <trkpt lat="44.69502" lon="5.88234">
        <ele>1251.205</ele>
        <time>2019-10-09T12:53:08.001Z</time>
      </trkpt>
      <trkpt lat="44.69434" lon="5.88207">
        <ele>1260.96</ele>
        <time>2019-10-09T12:53:47.001Z</time>
      </trkpt>
      <trkpt lat="44.69376" lon="5.88163">
        <ele>1265.425</ele>
        <time>2019-10-09T12:54:17.001Z</time>
      </trkpt>
      <trkpt lat="44.69349" lon="5.8814">
        <ele>1266.16</ele>
        <time>2019-10-09T12:56:41.001Z</time>
      </trkpt>
      <trkpt lat="44.69357" lon="5.8815">
        <ele>1262.341</ele>
        <time>2019-10-09T12:57:29.001Z</time>
      </trkpt>
      <trkpt lat="44.69362" lon="5.88191">
        <ele>1261.398</ele>
        <time>2019-10-09T12:58:02Z</time>
      </trkpt>
      <trkpt lat="44.69363" lon="5.88204">
        <ele>1258.983</ele>
        <time>2019-10-09T12:58:32.001Z</time>
      </trkpt>
      <trkpt lat="44.69359" lon="5.88174">
        <ele>1252.149</ele>
        <time>2019-10-09T12:59:11.001Z</time>
      </trkpt>
      <trkpt lat="44.69356" lon="5.88159">
        <ele>1254.12</ele>
        <time>2019-10-09T12:59:44.001Z</time>
      </trkpt>
      <trkpt lat="44.69356" lon="5.88153">
        <ele>1257.486</ele>
        <time>2019-10-09T13:00:17.001Z</time>
      </trkpt>
      <trkpt lat="44.69345" lon="5.88185">
        <ele>1261.644</ele>
        <time>2019-10-09T13:01:11.001Z</time>
      </trkpt>
      <trkpt lat="44.69364" lon="5.88187">
        <ele>1256.392</ele>
        <time>2019-10-09T13:07:14.001Z</time>
      </trkpt>
      <trkpt lat="44.69346" lon="5.88148">
        <ele>1254.335</ele>
        <time>2019-10-09T13:09:52.001Z</time>
      </trkpt>
      <trkpt lat="44.69276" lon="5.88085">
        <ele>1255.276</ele>
        <time>2019-10-09T13:12:31.001Z</time>
      </trkpt>
      <trkpt lat="44.6919" lon="5.87992">
        <ele>1254.324</ele>
        <time>2019-10-09T13:13:01.001Z</time>
      </trkpt>
      <trkpt lat="44.6911" lon="5.87916">
        <ele>1256.631</ele>
        <time>2019-10-09T13:13:31.001Z</time>
      </trkpt>
      <trkpt lat="44.69048" lon="5.87868">
        <ele>1264.312</ele>
        <time>2019-10-09T13:14:01.001Z</time>
      </trkpt>
      <trkpt lat="44.68997" lon="5.87826">
        <ele>1267.703</ele>
        <time>2019-10-09T13:14:31.001Z</time>
      </trkpt>
      <trkpt lat="44.68943" lon="5.87783">
        <ele>1269.394</ele>
        <time>2019-10-09T13:15:01.001Z</time>
      </trkpt>
      <trkpt lat="44.68885" lon="5.87753">
        <ele>1272.905</ele>
        <time>2019-10-09T13:15:31.001Z</time>
      </trkpt>
      <trkpt lat="44.68826" lon="5.87735">
        <ele>1276.008</ele>
        <time>2019-10-09T13:16:01.001Z</time>
      </trkpt>
      <trkpt lat="44.6878" lon="5.87697">
        <ele>1279.579</ele>
        <time>2019-10-09T13:16:31.001Z</time>
      </trkpt>
      <trkpt lat="44.68705" lon="5.87637">
        <ele>1280.546</ele>
        <time>2019-10-09T13:17:01.001Z</time>
      </trkpt>
      <trkpt lat="44.6863" lon="5.87591">
        <ele>1282.871</ele>
        <time>2019-10-09T13:17:31.001Z</time>
      </trkpt>
      <trkpt lat="44.68562" lon="5.87522">
        <ele>1281.201</ele>
        <time>2019-10-09T13:18:04.001Z</time>
      </trkpt>
      <trkpt lat="44.68491" lon="5.87491">
        <ele>1282.638</ele>
        <time>2019-10-09T13:18:34.001Z</time>
      </trkpt>
      <trkpt lat="44.68428" lon="5.87459">
        <ele>1288.773</ele>
        <time>2019-10-09T13:19:04.001Z</time>
      </trkpt>
      <trkpt lat="44.68367" lon="5.87426">
        <ele>1292.247</ele>
        <time>2019-10-09T13:19:34.001Z</time>
      </trkpt>
      <trkpt lat="44.68313" lon="5.87395">
        <ele>1295.575</ele>
        <time>2019-10-09T13:20:04.001Z</time>
      </trkpt>
      <trkpt lat="44.68258" lon="5.87349">
        <ele>1297.003</ele>
        <time>2019-10-09T13:20:34.001Z</time>
      </trkpt>
      <trkpt lat="44.68203" lon="5.87288">
        <ele>1302.689</ele>
        <time>2019-10-09T13:21:04.001Z</time>
      </trkpt>
      <trkpt lat="44.68139" lon="5.87244">
        <ele>1303.776</ele>
        <time>2019-10-09T13:21:34.001Z</time>
      </trkpt>
      <trkpt lat="44.68085" lon="5.87202">
        <ele>1303.888</ele>
        <time>2019-10-09T13:22:04.001Z</time>
      </trkpt>
      <trkpt lat="44.68032" lon="5.87161">
        <ele>1306.648</ele>
        <time>2019-10-09T13:22:40.001Z</time>
      </trkpt>
      <trkpt lat="44.67989" lon="5.87124">
        <ele>1307.503</ele>
        <time>2019-10-09T13:23:10.001Z</time>
      </trkpt>
      <trkpt lat="44.67946" lon="5.87075">
        <ele>1313.313</ele>
        <time>2019-10-09T13:23:46.001Z</time>
      </trkpt>
      <trkpt lat="44.67893" lon="5.87049">
        <ele>1317.295</ele>
        <time>2019-10-09T13:24:25.001Z</time>
      </trkpt>
      <trkpt lat="44.6784" lon="5.8703">
        <ele>1318.763</ele>
        <time>2019-10-09T13:24:58.001Z</time>
      </trkpt>
      <trkpt lat="44.67792" lon="5.86985">
        <ele>1316.103</ele>
        <time>2019-10-09T13:25:31.001Z</time>
      </trkpt>
      <trkpt lat="44.67746" lon="5.86936">
        <ele>1323.732</ele>
        <time>2019-10-09T13:26:07.001Z</time>
      </trkpt>
      <trkpt lat="44.67713" lon="5.86874">
        <ele>1328.057</ele>
        <time>2019-10-09T13:26:40.001Z</time>
      </trkpt>
      <trkpt lat="44.67683" lon="5.86811">
        <ele>1330.267</ele>
        <time>2019-10-09T13:27:10.001Z</time>
      </trkpt>
      <trkpt lat="44.67652" lon="5.86747">
        <ele>1334.769</ele>
        <time>2019-10-09T13:27:43.001Z</time>
      </trkpt>
      <trkpt lat="44.67597" lon="5.86731">
        <ele>1341.176</ele>
        <time>2019-10-09T13:28:22.001Z</time>
      </trkpt>
      <trkpt lat="44.67547" lon="5.86753">
        <ele>1344.708</ele>
        <time>2019-10-09T13:28:52.001Z</time>
      </trkpt>
      <trkpt lat="44.67495" lon="5.86761">
        <ele>1344.528</ele>
        <time>2019-10-09T13:29:22.001Z</time>
      </trkpt>
      <trkpt lat="44.67443" lon="5.86758">
        <ele>1347.24</ele>
        <time>2019-10-09T13:29:52.001Z</time>
      </trkpt>
      <trkpt lat="44.67386" lon="5.86739">
        <ele>1350.084</ele>
        <time>2019-10-09T13:30:25.001Z</time>
      </trkpt>
      <trkpt lat="44.67317" lon="5.86714">
        <ele>1357.43</ele>
        <time>2019-10-09T13:31:10.001Z</time>
      </trkpt>
      <trkpt lat="44.67257" lon="5.86703">
        <ele>1360.482</ele>
        <time>2019-10-09T13:31:46.001Z</time>
      </trkpt>
      <trkpt lat="44.67203" lon="5.86679">
        <ele>1371.356</ele>
        <time>2019-10-09T13:32:19.001Z</time>
      </trkpt>
      <trkpt lat="44.67157" lon="5.86643">
        <ele>1378.275</ele>
        <time>2019-10-09T13:32:49.001Z</time>
      </trkpt>
      <trkpt lat="44.67125" lon="5.86579">
        <ele>1376.439</ele>
        <time>2019-10-09T13:33:19.001Z</time>
      </trkpt>
      <trkpt lat="44.67078" lon="5.86528">
        <ele>1376.791</ele>
        <time>2019-10-09T13:33:58.001Z</time>
      </trkpt>
      <trkpt lat="44.67021" lon="5.8648">
        <ele>1385.39</ele>
        <time>2019-10-09T13:34:40.001Z</time>
      </trkpt>
      <trkpt lat="44.66982" lon="5.86434">
        <ele>1391.367</ele>
        <time>2019-10-09T13:40:19.001Z</time>
      </trkpt>
      <trkpt lat="44.66931" lon="5.86421">
        <ele>1393.525</ele>
        <time>2019-10-09T13:40:49.001Z</time>
      </trkpt>
      <trkpt lat="44.66881" lon="5.86404">
        <ele>1401.161</ele>
        <time>2019-10-09T13:41:19.001Z</time>
      </trkpt>
      <trkpt lat="44.66835" lon="5.86365">
        <ele>1410.05</ele>
        <time>2019-10-09T13:41:52.001Z</time>
      </trkpt>
      <trkpt lat="44.66804" lon="5.86286">
        <ele>1420.217</ele>
        <time>2019-10-09T13:42:34.001Z</time>
      </trkpt>
      <trkpt lat="44.66787" lon="5.86195">
        <ele>1414.687</ele>
        <time>2019-10-09T13:43:13.001Z</time>
      </trkpt>
      <trkpt lat="44.66823" lon="5.86133">
        <ele>1414.753</ele>
        <time>2019-10-09T13:43:46.001Z</time>
      </trkpt>
      <trkpt lat="44.66834" lon="5.86062">
        <ele>1418.862</ele>
        <time>2019-10-09T13:44:16Z</time>
      </trkpt>
      <trkpt lat="44.6684" lon="5.85992">
        <ele>1426.414</ele>
        <time>2019-10-09T13:44:49.001Z</time>
      </trkpt>
      <trkpt lat="44.66812" lon="5.85926">
        <ele>1428.488</ele>
        <time>2019-10-09T13:45:19.001Z</time>
      </trkpt>
      <trkpt lat="44.66773" lon="5.85851">
        <ele>1428.622</ele>
        <time>2019-10-09T13:45:49.001Z</time>
      </trkpt>
      <trkpt lat="44.66724" lon="5.85796">
        <ele>1432.397</ele>
        <time>2019-10-09T13:46:19.001Z</time>
      </trkpt>
      <trkpt lat="44.66657" lon="5.85791">
        <ele>1433.015</ele>
        <time>2019-10-09T13:46:49.001Z</time>
      </trkpt>
      <trkpt lat="44.66656" lon="5.85789">
        <ele>1434.708</ele>
        <time>2019-10-09T13:51:16Z</time>
      </trkpt>
      <trkpt lat="44.66623" lon="5.85716">
        <ele>1431.739</ele>
        <time>2019-10-09T13:53:43.001Z</time>
      </trkpt>
      <trkpt lat="44.666" lon="5.85589">
        <ele>1436.72</ele>
        <time>2019-10-09T13:54:13.001Z</time>
      </trkpt>
      <trkpt lat="44.66527" lon="5.85532">
        <ele>1441.431</ele>
        <time>2019-10-09T13:54:43.001Z</time>
      </trkpt>
      <trkpt lat="44.66351" lon="5.85435">
        <ele>1435.398</ele>
        <time>2019-10-09T13:55:13.001Z</time>
      </trkpt>
      <trkpt lat="44.661" lon="5.85445">
        <ele>1418.951</ele>
        <time>2019-10-09T13:55:43.001Z</time>
      </trkpt>
      <trkpt lat="44.65818" lon="5.8549">
        <ele>1401.767</ele>
        <time>2019-10-09T13:56:13.001Z</time>
      </trkpt>
      <trkpt lat="44.65475" lon="5.8562">
        <ele>1371.721</ele>
        <time>2019-10-09T13:56:43.001Z</time>
      </trkpt>
      <trkpt lat="44.65144" lon="5.85549">
        <ele>1349.628</ele>
        <time>2019-10-09T13:57:13.001Z</time>
      </trkpt>
      <trkpt lat="44.6482" lon="5.85359">
        <ele>1317.877</ele>
        <time>2019-10-09T13:57:43.001Z</time>
      </trkpt>
      <trkpt lat="44.64458" lon="5.85243">
        <ele>1294.237</ele>
        <time>2019-10-09T13:58:13.001Z</time>
      </trkpt>
      <trkpt lat="44.64235" lon="5.85061">
        <ele>1259.031</ele>
        <time>2019-10-09T13:58:43.001Z</time>
      </trkpt>
      <trkpt lat="44.64232" lon="5.85224">
        <ele>1220.118</ele>
        <time>2019-10-09T13:59:13.001Z</time>
      </trkpt>
      <trkpt lat="44.64" lon="5.84981">
        <ele>1184.407</ele>
        <time>2019-10-09T13:59:43.001Z</time>
      </trkpt>
      <trkpt lat="44.63709" lon="5.85089">
        <ele>1165.873</ele>
        <time>2019-10-09T14:00:13.001Z</time>
      </trkpt>
      <trkpt lat="44.63467" lon="5.85052">
        <ele>1167.059</ele>
        <time>2019-10-09T14:00:43.001Z</time>
      </trkpt>
      <trkpt lat="44.63389" lon="5.8505">
        <ele>1173.325</ele>
        <time>2019-10-09T14:01:43.001Z</time>
      </trkpt>
      <trkpt lat="44.6327" lon="5.85031">
        <ele>1171.672</ele>
        <time>2019-10-09T14:02:13.001Z</time>
      </trkpt>
      <trkpt lat="44.62982" lon="5.8507">
        <ele>1141.767</ele>
        <time>2019-10-09T14:02:43.001Z</time>
      </trkpt>
      <trkpt lat="44.62686" lon="5.85197">
        <ele>1122.829</ele>
        <time>2019-10-09T14:03:13.001Z</time>
      </trkpt>
      <trkpt lat="44.6237" lon="5.85316">
        <ele>1117.012</ele>
        <time>2019-10-09T14:03:43.001Z</time>
      </trkpt>
      <trkpt lat="44.62099" lon="5.85457">
        <ele>1101.829</ele>
        <time>2019-10-09T14:04:13.001Z</time>
      </trkpt>
      <trkpt lat="44.61809" lon="5.85566">
        <ele>1089.587</ele>
        <time>2019-10-09T14:04:43.001Z</time>
      </trkpt>
      <trkpt lat="44.61552" lon="5.8567">
        <ele>1081.814</ele>
        <time>2019-10-09T14:05:13.001Z</time>
      </trkpt>
      <trkpt lat="44.61409" lon="5.85663">
        <ele>1089.339</ele>
        <time>2019-10-09T14:05:43.001Z</time>
      </trkpt>
      <trkpt lat="44.61251" lon="5.85796">
        <ele>1078.185</ele>
        <time>2019-10-09T14:06:13.001Z</time>
      </trkpt>
      <trkpt lat="44.61026" lon="5.85802">
        <ele>1059.911</ele>
        <time>2019-10-09T14:06:43.001Z</time>
      </trkpt>
      <trkpt lat="44.60654" lon="5.8575">
        <ele>1054.667</ele>
        <time>2019-10-09T14:07:29.001Z</time>
      </trkpt>
      <trkpt lat="44.60296" lon="5.85787">
        <ele>1034.692</ele>
        <time>2019-10-09T14:07:59.001Z</time>
      </trkpt>
      <trkpt lat="44.59905" lon="5.85794">
        <ele>1004.095</ele>
        <time>2019-10-09T14:08:29.001Z</time>
      </trkpt>
      <trkpt lat="44.59564" lon="5.85811">
        <ele>992.15</ele>
        <time>2019-10-09T14:09:02Z</time>
      </trkpt>
      <trkpt lat="44.5932" lon="5.85604">
        <ele>983.126</ele>
        <time>2019-10-09T14:09:32.001Z</time>
      </trkpt>
      <trkpt lat="44.59048" lon="5.85546">
        <ele>975.944</ele>
        <time>2019-10-09T14:10:02Z</time>
      </trkpt>
      <trkpt lat="44.5877" lon="5.85602">
        <ele>968.85</ele>
        <time>2019-10-09T14:10:32.001Z</time>
      </trkpt>
      <trkpt lat="44.58491" lon="5.8557">
        <ele>957.775</ele>
        <time>2019-10-09T14:11:02Z</time>
      </trkpt>
      <trkpt lat="44.58184" lon="5.85515">
        <ele>945.587</ele>
        <time>2019-10-09T14:11:32.001Z</time>
      </trkpt>
      <trkpt lat="44.57903" lon="5.85416">
        <ele>934.996</ele>
        <time>2019-10-09T14:12:02Z</time>
      </trkpt>
      <trkpt lat="44.57672" lon="5.85507">
        <ele>927.995</ele>
        <time>2019-10-09T14:12:32.001Z</time>
      </trkpt>
      <trkpt lat="44.57552" lon="5.85643">
        <ele>928.002</ele>
        <time>2019-10-09T14:13:02Z</time>
      </trkpt>
      <trkpt lat="44.57454" lon="5.85776">
        <ele>928.149</ele>
        <time>2019-10-09T14:13:32.001Z</time>
      </trkpt>
      <trkpt lat="44.57366" lon="5.85928">
        <ele>928.297</ele>
        <time>2019-10-09T14:14:02Z</time>
      </trkpt>
      <trkpt lat="44.57276" lon="5.86036">
        <ele>929.933</ele>
        <time>2019-10-09T14:14:32.001Z</time>
      </trkpt>
      <trkpt lat="44.57185" lon="5.8612">
        <ele>933.199</ele>
        <time>2019-10-09T14:15:02Z</time>
      </trkpt>
      <trkpt lat="44.57103" lon="5.86235">
        <ele>934.155</ele>
        <time>2019-10-09T14:15:32.001Z</time>
      </trkpt>
      <trkpt lat="44.57049" lon="5.86444">
        <ele>928.714</ele>
        <time>2019-10-09T14:16:02Z</time>
      </trkpt>
      <trkpt lat="44.57049" lon="5.86738">
        <ele>919.04</ele>
        <time>2019-10-09T14:16:32.001Z</time>
      </trkpt>
      <trkpt lat="44.57034" lon="5.87011">
        <ele>900.493</ele>
        <time>2019-10-09T14:17:02Z</time>
      </trkpt>
      <trkpt lat="44.57052" lon="5.87158">
        <ele>903.216</ele>
        <time>2019-10-09T14:17:32.001Z</time>
      </trkpt>
      <trkpt lat="44.57056" lon="5.87279">
        <ele>911.951</ele>
        <time>2019-10-09T14:18:02Z</time>
      </trkpt>
      <trkpt lat="44.5706" lon="5.87388">
        <ele>918.397</ele>
        <time>2019-10-09T14:18:32.001Z</time>
      </trkpt>
      <trkpt lat="44.5702" lon="5.87547">
        <ele>918.309</ele>
        <time>2019-10-09T14:19:02Z</time>
      </trkpt>
      <trkpt lat="44.5696" lon="5.87724">
        <ele>916.008</ele>
        <time>2019-10-09T14:19:32.001Z</time>
      </trkpt>
      <trkpt lat="44.56922" lon="5.87863">
        <ele>913.18</ele>
        <time>2019-10-09T14:20:02Z</time>
      </trkpt>
      <trkpt lat="44.56854" lon="5.88014">
        <ele>910.77</ele>
        <time>2019-10-09T14:20:32.001Z</time>
      </trkpt>
      <trkpt lat="44.56788" lon="5.88157">
        <ele>909.149</ele>
        <time>2019-10-09T14:21:02Z</time>
      </trkpt>
      <trkpt lat="44.56772" lon="5.88319">
        <ele>908.852</ele>
        <time>2019-10-09T14:21:32.001Z</time>
      </trkpt>
      <trkpt lat="44.56725" lon="5.88455">
        <ele>909.775</ele>
        <time>2019-10-09T14:22:02Z</time>
      </trkpt>
      <trkpt lat="44.565" lon="5.88662">
        <ele>898.554</ele>
        <time>2019-10-09T14:22:32.001Z</time>
      </trkpt>
      <trkpt lat="44.56273" lon="5.88869">
        <ele>883.077</ele>
        <time>2019-10-09T14:23:02Z</time>
      </trkpt>
      <trkpt lat="44.56177" lon="5.89048">
        <ele>868.627</ele>
        <time>2019-10-09T14:23:32.001Z</time>
      </trkpt>
      <trkpt lat="44.56184" lon="5.89223">
        <ele>865.987</ele>
        <time>2019-10-09T14:24:02Z</time>
      </trkpt>
      <trkpt lat="44.56185" lon="5.89262">
        <ele>867.013</ele>
        <time>2019-10-09T14:29:44.001Z</time>
      </trkpt>
      <trkpt lat="44.56186" lon="5.89416">
        <ele>868.769</ele>
        <time>2019-10-09T14:30:14.001Z</time>
      </trkpt>
      <trkpt lat="44.56187" lon="5.89568">
        <ele>870.116</ele>
        <time>2019-10-09T14:30:44.001Z</time>
      </trkpt>
      <trkpt lat="44.56186" lon="5.89715">
        <ele>874.266</ele>
        <time>2019-10-09T14:31:14.001Z</time>
      </trkpt>
      <trkpt lat="44.56186" lon="5.89855">
        <ele>875.802</ele>
        <time>2019-10-09T14:31:44.001Z</time>
      </trkpt>
      <trkpt lat="44.56185" lon="5.9001">
        <ele>873.008</ele>
        <time>2019-10-09T14:32:14.001Z</time>
      </trkpt>
      <trkpt lat="44.56187" lon="5.90176">
        <ele>871.301</ele>
        <time>2019-10-09T14:32:47.001Z</time>
      </trkpt>
      <trkpt lat="44.56187" lon="5.90327">
        <ele>874.121</ele>
        <time>2019-10-09T14:33:17.001Z</time>
      </trkpt>
      <trkpt lat="44.56188" lon="5.90479">
        <ele>876.173</ele>
        <time>2019-10-09T14:33:47.001Z</time>
      </trkpt>
      <trkpt lat="44.56188" lon="5.9064">
        <ele>878.174</ele>
        <time>2019-10-09T14:34:17.001Z</time>
      </trkpt>
      <trkpt lat="44.56189" lon="5.90804">
        <ele>879.811</ele>
        <time>2019-10-09T14:34:47.001Z</time>
      </trkpt>
      <trkpt lat="44.56189" lon="5.90963">
        <ele>882.254</ele>
        <time>2019-10-09T14:35:17.001Z</time>
      </trkpt>
      <trkpt lat="44.56187" lon="5.91123">
        <ele>884.523</ele>
        <time>2019-10-09T14:35:47.001Z</time>
      </trkpt>
      <trkpt lat="44.56187" lon="5.91272">
        <ele>887.486</ele>
        <time>2019-10-09T14:36:17.001Z</time>
      </trkpt>
      <trkpt lat="44.56185" lon="5.91423">
        <ele>887.419</ele>
        <time>2019-10-09T14:36:47.001Z</time>
      </trkpt>
      <trkpt lat="44.56189" lon="5.91582">
        <ele>888.25</ele>
        <time>2019-10-09T14:37:17.001Z</time>
      </trkpt>
      <trkpt lat="44.5619" lon="5.91728">
        <ele>897.189</ele>
        <time>2019-10-09T14:37:47.001Z</time>
      </trkpt>
      <trkpt lat="44.56186" lon="5.91862">
        <ele>896.979</ele>
        <time>2019-10-09T14:38:17.001Z</time>
      </trkpt>
      <trkpt lat="44.56187" lon="5.91984">
        <ele>900.224</ele>
        <time>2019-10-09T14:38:47.001Z</time>
      </trkpt>
      <trkpt lat="44.56188" lon="5.92099">
        <ele>903.518</ele>
        <time>2019-10-09T14:39:17.001Z</time>
      </trkpt>
      <trkpt lat="44.56217" lon="5.92125">
        <ele>905.657</ele>
        <time>2019-10-09T14:39:47.001Z</time>
      </trkpt>
      <trkpt lat="44.56247" lon="5.91946">
        <ele>909.707</ele>
        <time>2019-10-09T14:40:17.001Z</time>
      </trkpt>
      <trkpt lat="44.5633" lon="5.9186">
        <ele>906.112</ele>
        <time>2019-10-09T14:40:47.001Z</time>
      </trkpt>
      <trkpt lat="44.56398" lon="5.91784">
        <ele>911.65</ele>
        <time>2019-10-09T14:41:17.001Z</time>
      </trkpt>
    </trkseg>
  </trk>
</gpx>